createdAt,value
2022-12-03T00:01:57.171Z,-0.33
2022-12-03T00:04:24.863Z,-0.32
2022-12-03T00:06:52.425Z,-0.49
2022-12-03T00:09:21.965Z,-0.43
2022-12-03T00:11:49.696Z,-0.37
2022-12-03T00:14:16.985Z,-0.47
2022-12-03T00:16:44.368Z,-0.53
2022-12-03T00:19:11.926Z,-0.51
2022-12-03T00:21:39.208Z,-0.51
2022-12-03T00:24:06.703Z,-0.50
2022-12-03T00:26:34.368Z,-0.65
2022-12-03T00:29:01.674Z,-0.67
2022-12-03T00:31:29.264Z,-0.53
2022-12-03T00:33:56.767Z,-0.48
2022-12-03T00:36:24.189Z,-0.65
2022-12-03T00:38:51.570Z,-0.60
2022-12-03T00:41:19.273Z,-0.60
2022-12-03T00:43:46.689Z,-0.82
2022-12-03T00:46:18.311Z,-0.81
2022-12-03T00:48:48.525Z,-0.74
2022-12-03T00:51:15.910Z,-0.79
2022-12-03T00:53:43.240Z,-0.80
2022-12-03T00:56:10.981Z,-0.79
2022-12-03T00:58:38.924Z,-0.84
2022-12-03T01:01:06.555Z,-0.88
2022-12-03T01:03:34.053Z,-0.91
2022-12-03T01:06:01.485Z,-0.89
2022-12-03T01:08:29.026Z,-0.81
2022-12-03T01:10:56.526Z,-0.89
2022-12-03T01:13:24.245Z,-0.96
2022-12-03T01:15:51.755Z,-1.07
2022-12-03T01:18:19.616Z,-1.06
2022-12-03T01:20:47.144Z,-0.92
2022-12-03T01:23:14.662Z,-1.12
2022-12-03T01:25:42.089Z,-1.13
2022-12-03T01:28:09.803Z,-1.16
2022-12-03T01:30:57.160Z,-1.17
2022-12-03T01:33:24.671Z,-1.23
2022-12-03T01:35:52.282Z,-1.23
2022-12-03T01:38:19.737Z,-1.49
2022-12-03T01:40:47.194Z,-1.29
2022-12-03T05:05:15.611Z,-3.50
2022-12-03T05:07:43.137Z,-3.56
2022-12-03T05:10:10.986Z,-3.39
2022-12-03T05:12:38.354Z,-3.49
2022-12-03T05:15:06.035Z,-3.48
2022-12-03T05:17:33.446Z,-3.62
2022-12-03T05:20:19.382Z,-3.67
2022-12-03T05:22:46.832Z,-3.44
2022-12-03T05:25:14.110Z,-3.35
2022-12-03T05:27:41.493Z,-3.19
2022-12-03T05:30:09.030Z,-3.56
2022-12-03T05:32:36.346Z,-3.52
2022-12-03T05:35:03.804Z,-3.48
2022-12-03T05:37:31.213Z,-3.38
2022-12-03T05:39:58.544Z,-3.47
2022-12-03T05:42:44.528Z,-3.32
2022-12-03T05:45:12.078Z,-3.34
2022-12-03T05:47:39.405Z,-3.32
2022-12-03T05:50:07.191Z,-3.60
2022-12-03T05:52:34.534Z,-3.40
2022-12-03T05:55:01.925Z,-3.27
2022-12-03T05:57:29.725Z,-3.36
2022-12-03T05:59:57.088Z,-3.28
2022-12-03T06:02:24.665Z,-3.41
2022-12-03T06:04:52.601Z,-3.29
2022-12-03T06:07:20.220Z,-3.12
2022-12-03T06:09:47.755Z,-2.98
2022-12-03T06:12:15.047Z,-3.03
2022-12-03T06:14:42.473Z,-3.12
2022-12-03T06:17:09.823Z,-3.26
2022-12-03T06:19:37.178Z,-3.18
2022-12-03T06:22:04.664Z,-3.13
2022-12-03T06:24:31.937Z,-3.05
2022-12-03T06:26:59.267Z,-3.01
2022-12-03T06:29:26.624Z,-2.83
2022-12-03T06:31:53.988Z,-2.92
2022-12-03T06:34:21.518Z,-2.95
2022-12-03T06:36:50.293Z,-2.76
2022-12-03T06:39:17.930Z,-2.86
2022-12-03T06:41:45.463Z,-2.81
2022-12-03T06:44:13.468Z,-2.60
2022-12-03T06:46:41.055Z,-2.69
2022-12-03T06:49:11.462Z,-2.81
2022-12-03T06:51:38.771Z,-2.78
2022-12-03T06:54:06.195Z,-2.48
2022-12-03T06:56:37.893Z,-2.35
2022-12-03T06:59:09.161Z,-2.21
2022-12-03T07:01:36.557Z,-2.21
2022-12-03T07:04:03.908Z,-1.56
2022-12-03T07:06:31.428Z,-0.59
2022-12-03T07:08:58.763Z,0.27
2022-12-03T07:11:31.868Z,1.40
2022-12-03T07:14:04.701Z,2.46
2022-12-03T07:16:33.255Z,2.96
2022-12-03T07:19:00.625Z,3.79
2022-12-03T07:21:27.927Z,3.92
2022-12-03T07:23:55.252Z,4.37
2022-12-03T07:26:22.546Z,5.40
2022-12-03T07:28:49.943Z,5.30
2022-12-03T07:31:17.307Z,5.12
2022-12-03T07:33:44.654Z,3.09
2022-12-03T07:36:12.682Z,3.13
2022-12-03T07:38:40.006Z,2.87
2022-12-03T07:41:07.539Z,1.80
2022-12-03T07:43:34.927Z,0.92
2022-12-03T07:46:02.795Z,1.38
2022-12-03T07:48:30.226Z,1.24
2022-12-03T07:50:59.031Z,2.28
2022-12-03T07:53:26.342Z,1.49
2022-12-03T07:55:53.767Z,2.00
2022-12-03T07:58:21.279Z,3.36
2022-12-03T08:00:48.808Z,3.15
2022-12-03T08:03:16.251Z,2.80
2022-12-03T08:05:43.583Z,3.34
2022-12-03T08:08:10.979Z,4.10
2022-12-03T08:10:38.559Z,3.80
2022-12-03T08:13:15.976Z,3.49
2022-12-03T08:15:43.649Z,3.40
2022-12-03T08:18:14.092Z,3.36
2022-12-03T08:20:41.951Z,2.81
2022-12-03T08:23:27.684Z,2.74
2022-12-03T08:25:55.130Z,3.29
2022-12-03T08:28:23.622Z,2.90
2022-12-03T08:30:56.823Z,3.01
2022-12-03T08:33:27.123Z,2.90
2022-12-03T08:35:54.459Z,3.00
2022-12-03T08:38:22.870Z,2.56
2022-12-03T08:40:51.545Z,2.79
2022-12-03T08:43:20.274Z,3.35
2022-12-03T08:45:49.774Z,3.22
2022-12-03T08:48:22.879Z,3.61
2022-12-03T08:50:50.317Z,4.34
2022-12-03T08:53:32.835Z,4.83
2022-12-03T08:56:01.206Z,5.03
2022-12-03T08:58:32.489Z,4.22
2022-12-03T09:01:06.372Z,4.15
2022-12-03T09:03:33.817Z,4.20
2022-12-03T09:06:01.265Z,3.98
2022-12-03T09:08:28.821Z,4.02
2022-12-03T09:10:56.415Z,4.25
2022-12-03T09:13:23.696Z,3.87
2022-12-03T09:15:51.073Z,3.83
2022-12-03T09:18:18.429Z,4.18
2022-12-03T09:20:45.840Z,3.72
2022-12-03T09:23:13.206Z,3.75
2022-12-03T09:25:40.556Z,3.84
2022-12-03T09:28:08.401Z,3.76
2022-12-03T09:30:35.729Z,4.02
2022-12-03T09:33:03.063Z,3.95
2022-12-03T09:35:30.427Z,3.85
2022-12-03T09:37:57.736Z,3.74
2022-12-03T09:40:25.072Z,3.23
2022-12-03T09:42:52.394Z,3.89
2022-12-03T09:45:20.541Z,3.80
2022-12-03T09:47:48.435Z,3.73
2022-12-03T09:50:23.360Z,3.71
2022-12-03T09:52:51.183Z,3.86
2022-12-03T09:55:19.621Z,4.51
2022-12-03T09:57:46.926Z,4.95
2022-12-03T10:00:18.982Z,4.51
2022-12-03T11:05:31.022Z,4.20
2022-12-03T11:07:58.476Z,4.23
2022-12-03T11:10:25.829Z,4.32
2022-12-03T11:13:11.971Z,3.81
2022-12-03T11:15:43.979Z,3.81
2022-12-03T11:18:11.469Z,3.67
2022-12-03T11:20:38.841Z,3.41
2022-12-03T11:23:06.999Z,3.01
2022-12-03T11:25:37.157Z,2.90
2022-12-03T11:28:10.439Z,3.06
2022-12-03T11:30:58.601Z,2.60
2022-12-03T11:33:26.028Z,2.77
2022-12-03T11:36:05.561Z,3.02
2022-12-03T11:38:40.966Z,3.01
2022-12-03T11:41:12.540Z,2.46
2022-12-03T11:43:52.290Z,2.39
2022-12-03T11:46:19.803Z,2.43
2022-12-03T11:48:47.310Z,2.26
2022-12-03T11:51:17.968Z,2.63
2022-12-03T11:53:45.408Z,2.39
2022-12-03T11:56:19.947Z,2.25
2022-12-03T11:58:47.451Z,1.77
2022-12-03T12:01:15.141Z,1.56
2022-12-03T12:03:43.596Z,1.40
2022-12-03T12:06:11.869Z,1.87
2022-12-03T12:08:40.330Z,2.01
2022-12-03T12:11:17.529Z,1.65
2022-12-03T12:13:44.967Z,1.62
2022-12-03T12:16:12.363Z,1.61
2022-12-03T12:18:53.714Z,1.19
2022-12-03T12:21:42.198Z,1.18
2022-12-03T12:24:28.543Z,0.95
2022-12-03T12:26:56.453Z,0.85
2022-12-03T12:29:23.800Z,0.72
2022-12-03T12:31:54.169Z,0.64
2022-12-03T12:34:22.098Z,0.73
2022-12-03T12:36:49.500Z,0.61
2022-12-03T12:39:16.929Z,0.58
2022-12-03T12:41:47.954Z,0.59
2022-12-03T12:44:15.504Z,0.50
2022-12-03T12:46:48.194Z,0.50
2022-12-03T12:49:16.126Z,0.79
2022-12-03T12:51:46.987Z,0.73
2022-12-03T12:54:15.321Z,0.70
2022-12-03T12:56:43.917Z,0.47
2022-12-03T12:59:15.215Z,0.34
2022-12-03T13:01:43.442Z,0.48
2022-12-03T13:04:29.975Z,0.17
2022-12-03T13:06:57.262Z,0.23
2022-12-03T13:09:25.037Z,0.12
2022-12-03T13:12:04.089Z,0.11
2022-12-03T13:14:32.136Z,-0.06
2022-12-03T13:16:59.687Z,-0.26
2022-12-03T13:19:27.675Z,-0.09
2022-12-03T13:21:55.705Z,-0.11
2022-12-03T13:24:27.342Z,-0.16
2022-12-03T13:26:54.745Z,-0.30
2022-12-03T13:29:25.139Z,-0.21
2022-12-03T13:31:53.160Z,-0.17
2022-12-03T13:34:27.692Z,-0.04
2022-12-03T13:36:58.574Z,-0.29
2022-12-03T13:39:35.569Z,-0.48
2022-12-03T13:42:45.283Z,-0.65
2022-12-03T13:45:15.669Z,-0.69
2022-12-03T13:47:43.109Z,-0.53
2022-12-03T13:50:22.557Z,-0.76
2022-12-03T13:52:49.934Z,-0.58
2022-12-03T13:55:22.603Z,-0.50
2022-12-03T13:57:50.093Z,-0.87
2022-12-03T14:00:17.545Z,-0.91
2022-12-03T14:02:44.957Z,-0.91
2022-12-03T14:05:12.331Z,-0.81
2022-12-03T14:07:43.625Z,-1.01
2022-12-03T14:10:12.389Z,-1.06
2022-12-03T14:12:39.814Z,-1.01
2022-12-03T14:15:07.572Z,-1.26
2022-12-03T14:17:34.947Z,-0.96
2022-12-03T14:20:03.984Z,-0.90
2022-12-03T14:22:31.453Z,-0.90
2022-12-03T14:24:58.952Z,-1.11
2022-12-03T14:27:26.434Z,-1.11
2022-12-03T14:29:54.164Z,-1.04
2022-12-03T14:32:21.961Z,-1.34
2022-12-03T14:34:49.278Z,-1.38
2022-12-03T14:37:16.699Z,-1.50
2022-12-03T14:39:44.210Z,-1.50
2022-12-03T14:42:14.455Z,-1.47
2022-12-03T14:44:42.680Z,-1.43
2022-12-03T14:47:10.156Z,-1.46
2022-12-03T14:49:37.582Z,-1.39
2022-12-03T14:52:08.490Z,-1.52
2022-12-03T14:54:44.683Z,-1.83
2022-12-03T14:57:15.740Z,-1.72
2022-12-03T14:59:43.353Z,-1.77
2022-12-03T15:02:11.234Z,-1.95
2022-12-03T15:04:39.002Z,-1.95
2022-12-03T15:07:06.634Z,-1.93
2022-12-03T15:09:34.285Z,-1.92
2022-12-03T15:12:03.649Z,-2.00
2022-12-03T15:14:31.146Z,-1.98
2022-12-03T15:16:58.619Z,-2.02
2022-12-03T15:19:26.086Z,-1.98
2022-12-03T15:21:53.626Z,-1.94
2022-12-03T15:24:21.134Z,-2.00
2022-12-03T15:26:49.345Z,-1.83
2022-12-03T15:29:16.716Z,-1.90
2022-12-03T15:31:44.697Z,-1.94
2022-12-03T15:34:14.952Z,-1.90
2022-12-03T15:36:44.782Z,-1.86
2022-12-03T15:39:12.371Z,-1.89
2022-12-03T15:41:39.676Z,-2.00
2022-12-03T15:44:07.224Z,-1.84
2022-12-03T15:46:34.769Z,-1.95
2022-12-03T15:49:02.152Z,-1.75
2022-12-03T15:51:29.648Z,-1.55
2022-12-03T15:53:57.005Z,-1.71
2022-12-03T15:56:25.781Z,-2.13
2022-12-03T15:58:53.815Z,-2.07
2022-12-03T16:01:23.318Z,-2.13
2022-12-03T16:03:50.945Z,-2.04
2022-12-03T16:06:19.759Z,-2.06
2022-12-03T16:08:48.263Z,-2.35
2022-12-03T16:11:15.718Z,-2.16
2022-12-03T16:13:43.098Z,-2.34
2022-12-03T16:16:10.656Z,-2.22
2022-12-03T16:18:41.195Z,-2.42
2022-12-03T16:21:08.560Z,-2.24
2022-12-03T16:23:38.308Z,-2.27
2022-12-03T16:26:05.710Z,-2.41
2022-12-03T16:28:33.189Z,-2.60
2022-12-03T16:31:00.626Z,-2.38
2022-12-03T16:33:28.309Z,-2.57
2022-12-03T16:35:55.690Z,-2.52
2022-12-03T16:38:23.101Z,-2.70
2022-12-03T16:40:50.675Z,-2.68
2022-12-03T16:43:18.018Z,-2.57
2022-12-03T16:46:02.666Z,-2.73
2022-12-03T16:48:30.417Z,-2.73
2022-12-03T16:50:57.803Z,-2.73
2022-12-03T16:53:25.147Z,-2.80
2022-12-03T16:55:52.518Z,-2.94
2022-12-03T16:58:21.527Z,-2.90
2022-12-03T17:00:49.277Z,-3.15
2022-12-03T17:03:18.041Z,-2.84
2022-12-03T17:05:45.654Z,-2.67
2022-12-03T17:08:13.407Z,-2.75
2022-12-03T17:10:41.092Z,-2.77
2022-12-03T17:13:10.557Z,-2.94
2022-12-03T17:15:38.624Z,-2.92
2022-12-03T17:18:06.501Z,-3.09
2022-12-03T17:20:34.076Z,-2.95
2022-12-03T17:23:01.487Z,-3.20
2022-12-03T17:25:28.981Z,-3.16
2022-12-03T17:27:56.310Z,-2.82
2022-12-03T17:30:23.588Z,-2.82
2022-12-03T17:32:51.108Z,-3.09
2022-12-03T17:35:18.542Z,-2.93
2022-12-03T17:37:46.200Z,-2.88
2022-12-03T17:40:13.886Z,-2.92
2022-12-03T17:42:41.296Z,-3.13
2022-12-03T17:45:08.857Z,-3.06
2022-12-03T17:47:36.306Z,-3.32
2022-12-03T17:50:03.711Z,-3.02
2022-12-03T17:52:31.395Z,-3.13
2022-12-03T17:55:23.636Z,-3.22
2022-12-03T17:57:46.283Z,-3.23
2022-12-03T18:00:13.764Z,-3.29
2022-12-03T18:02:42.378Z,-3.46
2022-12-03T18:05:10.020Z,-3.42
2022-12-03T18:07:38.175Z,-3.49
2022-12-03T18:10:05.955Z,-3.50
2022-12-03T18:12:35.177Z,-3.20
2022-12-03T18:15:02.555Z,-3.38
2022-12-03T18:17:30.225Z,-3.28
2022-12-03T18:19:58.044Z,-3.29
2022-12-03T18:22:27.725Z,-3.57
2022-12-03T18:24:55.364Z,-3.39
2022-12-03T18:27:22.921Z,-3.26
2022-12-03T18:29:50.556Z,-3.32
2022-12-03T18:32:28.920Z,-3.30
2022-12-03T18:34:57.243Z,-3.35
2022-12-03T18:37:26.355Z,-3.35
2022-12-03T18:39:54.057Z,-3.51
2022-12-03T18:42:23.088Z,-3.54
2022-12-03T18:44:51.441Z,-3.54
2022-12-03T18:47:26.695Z,-3.58
2022-12-03T18:49:54.366Z,-3.48
2022-12-03T18:52:22.411Z,-3.61
2022-12-03T18:54:50.180Z,-3.59
2022-12-03T18:57:18.080Z,-3.45
2022-12-03T18:59:45.503Z,-3.58
2022-12-03T19:02:26.680Z,-3.57
2022-12-03T19:05:02.648Z,-3.68
2022-12-03T19:07:30.341Z,-3.66
2022-12-03T22:16:04.368Z,-4.19
2022-12-03T22:18:32.003Z,-4.20
2022-12-03T22:21:02.270Z,-4.05
2022-12-03T22:23:30.447Z,-4.24
2022-12-03T22:26:00.972Z,-4.13
2022-12-03T22:28:28.838Z,-4.25
2022-12-03T22:30:56.695Z,-4.27
2022-12-03T22:33:24.431Z,-4.25
2022-12-03T22:36:01.787Z,-4.36
2022-12-03T22:38:31.126Z,-4.29
2022-12-03T22:40:58.583Z,-4.28
2022-12-03T22:43:29.276Z,-4.36
2022-12-03T22:46:04.641Z,-4.38
2022-12-03T22:48:35.510Z,-4.23
2022-12-03T22:51:03.004Z,-4.31
2022-12-03T22:53:30.580Z,-4.47
2022-12-03T22:55:58.729Z,-4.50
2022-12-03T22:58:26.320Z,-4.47
2022-12-03T23:00:56.286Z,-4.33
2022-12-03T23:03:27.338Z,-4.37
2022-12-03T23:05:54.682Z,-4.23
2022-12-03T23:08:24.847Z,-4.10
2022-12-03T23:10:54.663Z,-4.27
2022-12-03T23:13:22.024Z,-4.42
2022-12-03T23:15:50.808Z,-4.50
2022-12-03T23:18:19.289Z,-4.51
2022-12-03T23:20:50.629Z,-4.43
2022-12-03T23:23:18.320Z,-4.40
2022-12-03T23:25:55.999Z,-4.44
2022-12-03T23:28:23.589Z,-4.40
2022-12-03T23:30:51.012Z,-4.42
2022-12-03T23:33:19.082Z,-4.55
2022-12-03T23:35:46.599Z,-4.62
2022-12-03T23:38:13.934Z,-4.71
2022-12-03T23:40:47.699Z,-4.31
2022-12-03T23:43:16.193Z,-4.50
2022-12-03T23:45:43.569Z,-4.43
2022-12-03T23:48:10.898Z,-4.55
2022-12-03T23:50:41.527Z,-4.36
2022-12-03T23:53:09.169Z,-4.37
2022-12-03T23:55:39.030Z,-4.38
2022-12-03T23:58:06.882Z,-4.77
